createdAt,value
2022-09-12T00:01:25.808Z,8.75
2022-09-12T00:05:28.738Z,8.75
2022-09-12T00:13:36.372Z,7.70
2022-09-12T00:17:42.239Z,8.43
2022-09-12T00:21:48.033Z,8.27
2022-09-12T00:25:50.208Z,9.03
2022-09-12T00:29:55.010Z,8.32
2022-09-12T00:34:01.124Z,8.10
2022-09-12T00:38:04.835Z,8.18
2022-09-12T00:42:07.641Z,8.95
2022-09-12T00:46:31.709Z,8.98
2022-09-12T00:50:41.892Z,8.82
2022-09-12T00:54:53.285Z,8.52
2022-09-12T00:59:05.479Z,7.70
2022-09-12T01:03:17.307Z,8.43
2022-09-12T01:07:20.489Z,8.45
2022-09-12T01:11:23.813Z,7.80
2022-09-12T01:15:31.027Z,8.20
2022-09-12T01:20:11.606Z,8.43
2022-09-12T01:24:44.742Z,9.10
2022-09-12T01:29:02.135Z,8.48
2022-09-12T01:33:39.506Z,8.65
2022-09-12T01:38:09.256Z,8.63
2022-09-12T01:42:18.179Z,8.38
2022-09-12T01:46:30.083Z,8.45
2022-09-12T01:50:44.326Z,9.15
2022-09-12T01:54:57.700Z,8.73
2022-09-12T01:59:17.364Z,9.45
2022-09-12T02:03:27.989Z,8.43
2022-09-12T02:07:53.527Z,8.15
2022-09-12T02:12:04.054Z,9.05
2022-09-12T02:16:14.814Z,9.18
2022-09-12T02:24:55.995Z,8.40
2022-09-12T02:28:58.479Z,9.30
2022-09-12T02:33:15.572Z,9.98
2022-09-12T02:37:30.138Z,10.43
2022-09-12T02:41:32.545Z,10.40
2022-09-12T02:45:37.025Z,10.52
2022-09-12T02:49:40.972Z,9.27
2022-09-12T02:53:51.823Z,10.27
2022-09-12T02:57:54.105Z,9.65
2022-09-12T03:02:15.613Z,9.05
2022-09-12T03:06:55.146Z,9.77
2022-09-12T03:11:49.938Z,9.60
2022-09-12T03:15:54.992Z,10.00
2022-09-12T03:20:09.784Z,10.75
2022-09-12T03:24:47.234Z,10.10
2022-09-12T03:28:54.451Z,9.85
2022-09-12T03:32:56.796Z,12.52
2022-09-12T03:36:59.035Z,10.90
2022-09-12T03:41:01.587Z,10.57
2022-09-12T03:45:07.736Z,10.50
2022-09-12T03:49:15.055Z,11.32
2022-09-12T03:53:19.803Z,11.90
2022-09-12T03:57:22.995Z,12.95
2022-09-12T04:01:25.217Z,11.27
2022-09-12T04:05:27.568Z,13.37
2022-09-12T04:09:31.121Z,13.47
2022-09-12T04:13:38.654Z,14.98
2022-09-12T04:17:41.074Z,14.63
2022-09-12T04:21:45.689Z,15.23
2022-09-12T04:26:02.912Z,15.32
2022-09-12T04:30:05.909Z,16.23
2022-09-12T04:34:08.337Z,14.57
2022-09-12T04:38:12.826Z,14.02
2022-09-12T04:42:15.137Z,13.23
2022-09-12T04:46:20.700Z,14.00
2022-09-12T04:50:22.994Z,13.85
2022-09-12T04:54:28.959Z,13.07
2022-09-12T04:58:33.364Z,14.15
2022-09-12T05:02:38.604Z,15.50
2022-09-12T05:06:47.659Z,14.77
2022-09-12T05:11:00.621Z,13.57
2022-09-12T05:15:03.081Z,13.68
2022-09-12T05:19:08.042Z,14.55
2022-09-12T05:23:10.380Z,14.18
2022-09-12T05:27:15.794Z,15.93
2022-09-12T05:31:28.577Z,15.45
2022-09-12T05:35:31.048Z,17.38
2022-09-12T05:39:34.002Z,16.83
2022-09-12T05:43:40.084Z,18.65
2022-09-12T05:47:48.496Z,18.65
2022-09-12T05:51:52.064Z,20.08
2022-09-12T05:56:26.754Z,18.98
2022-09-12T06:00:33.522Z,18.65
2022-09-12T06:04:46.081Z,18.35
2022-09-12T06:09:01.719Z,17.38
2022-09-12T06:13:09.248Z,17.42
2022-09-12T06:17:23.278Z,16.27
2022-09-12T06:21:31.894Z,15.98
2022-09-12T06:25:46.785Z,15.40
2022-09-12T06:29:49.099Z,15.18
2022-09-12T06:33:57.237Z,14.25
2022-09-12T06:38:05.392Z,15.05
2022-09-12T06:42:10.299Z,14.25
2022-09-12T06:46:13.384Z,13.63
2022-09-12T06:50:27.284Z,14.00
2022-09-12T06:54:29.530Z,15.27
2022-09-12T06:58:43.031Z,14.83
2022-09-12T07:02:54.945Z,12.77
2022-09-12T07:07:09.891Z,11.67
2022-09-12T07:11:18.596Z,11.93
2022-09-12T07:15:21.286Z,10.60
2022-09-12T07:19:26.418Z,10.50
2022-09-12T07:23:31.977Z,9.70
2022-09-12T07:27:40.429Z,9.23
2022-09-12T07:31:43.625Z,9.77
2022-09-12T07:36:01.402Z,9.13
2022-09-12T07:40:04.079Z,8.23
2022-09-12T07:44:09.217Z,8.38
2022-09-12T07:48:11.813Z,7.80
2022-09-12T07:52:16.494Z,7.93
2022-09-12T07:56:29.371Z,7.63
2022-09-12T08:00:36.227Z,7.28
2022-09-12T08:04:38.613Z,6.72
2022-09-12T08:08:49.324Z,7.13
2022-09-12T08:12:51.872Z,6.90
2022-09-12T08:16:54.087Z,7.47
2022-09-12T08:21:03.173Z,6.80
2022-09-12T08:25:05.713Z,6.53
2022-09-12T08:29:22.468Z,6.78
2022-09-12T08:33:27.697Z,6.60
2022-09-12T08:37:33.053Z,5.78
2022-09-12T08:41:49.358Z,6.05
2022-09-12T08:46:06.436Z,6.63
2022-09-12T08:50:08.618Z,6.28
2022-09-12T08:54:22.103Z,6.07
2022-09-12T08:58:30.316Z,6.95
2022-09-12T09:02:52.757Z,5.78
2022-09-12T09:07:30.621Z,6.70
2022-09-12T09:11:53.007Z,6.90
2022-09-12T09:16:16.377Z,5.57
2022-09-12T09:21:00.826Z,5.38
2022-09-12T09:25:11.382Z,6.10
2022-09-12T09:29:23.057Z,5.32
2022-09-12T09:33:34.545Z,5.22
2022-09-12T09:37:43.476Z,5.53
2022-09-12T09:42:10.350Z,5.63
2022-09-12T09:46:14.485Z,5.93
2022-09-12T09:50:17.766Z,4.85
2022-09-12T09:58:41.636Z,6.10
2022-09-12T10:06:52.204Z,5.35
2022-09-12T10:11:04.755Z,5.95
2022-09-12T10:15:28.433Z,5.93
2022-09-12T10:19:52.681Z,7.15
2022-09-12T10:24:26.299Z,7.03
2022-09-12T10:28:45.662Z,6.72
2022-09-12T10:32:51.194Z,6.40
2022-09-12T10:37:13.351Z,7.03
2022-09-12T10:41:20.220Z,5.90
2022-09-12T10:45:39.046Z,6.75
2022-09-12T10:49:41.329Z,8.00
2022-09-12T10:53:46.965Z,6.85
2022-09-12T10:58:31.587Z,6.63
2022-09-12T11:02:37.098Z,6.20
2022-09-12T11:06:50.606Z,6.22
2022-09-12T11:11:00.660Z,6.05
2022-09-12T11:15:20.405Z,6.65
2022-09-12T11:19:56.347Z,6.07
2022-09-12T11:24:06.773Z,6.10
2022-09-12T11:28:20.764Z,5.38
2022-09-12T11:32:38.110Z,5.65
2022-09-12T11:37:07.426Z,6.43
2022-09-12T11:41:27.695Z,5.53
2022-09-12T11:45:39.438Z,5.32
2022-09-12T11:49:52.677Z,5.28
2022-09-12T11:54:05.469Z,5.83
2022-09-12T11:58:11.611Z,6.03
2022-09-12T12:02:35.607Z,5.90
2022-09-12T12:06:52.920Z,5.00
2022-09-12T12:11:03.977Z,5.25
2022-09-12T12:15:16.556Z,5.32
2022-09-12T12:19:19.116Z,5.03
2022-09-12T12:23:26.198Z,5.20
2022-09-12T12:28:09.349Z,5.18
2022-09-12T12:32:28.893Z,5.90
2022-09-12T12:36:44.985Z,5.63
2022-09-12T12:40:50.837Z,4.95
2022-09-12T12:44:56.804Z,5.50
2022-09-12T12:49:18.027Z,5.20
2022-09-12T12:53:38.602Z,5.30
2022-09-12T12:57:59.592Z,5.03
2022-09-12T13:02:02.218Z,5.13
2022-09-12T13:06:10.659Z,4.90
2022-09-12T13:10:29.108Z,5.47
2022-09-12T13:14:48.918Z,4.72
2022-09-12T13:18:54.747Z,4.57
2022-09-12T13:22:58.770Z,4.85
2022-09-12T13:27:04.382Z,4.30
2022-09-12T13:31:35.464Z,4.03
2022-09-12T13:36:12.956Z,4.25
2022-09-12T13:40:33.612Z,4.68
2022-09-12T13:45:05.202Z,4.88
2022-09-12T13:49:18.856Z,4.55
2022-09-12T13:53:36.913Z,4.35
2022-09-12T13:57:42.917Z,4.28
2022-09-12T14:01:51.652Z,4.55
2022-09-12T14:05:57.762Z,4.20
2022-09-12T14:10:06.426Z,5.32
2022-09-12T14:14:25.058Z,4.90
2022-09-12T14:18:39.119Z,3.97
2022-09-12T14:22:46.379Z,3.80
2022-09-12T14:26:59.454Z,3.90
2022-09-12T14:31:27.041Z,4.18
2022-09-12T14:35:33.653Z,4.22
2022-09-12T14:39:45.989Z,4.30
2022-09-12T14:43:54.382Z,4.15
2022-09-12T14:47:59.697Z,3.92
2022-09-12T14:52:16.849Z,3.40
2022-09-12T14:56:22.781Z,3.70
2022-09-12T15:00:25.212Z,4.85
2022-09-12T15:04:48.413Z,3.65
2022-09-12T15:09:01.719Z,3.38
2022-09-12T15:13:28.486Z,4.00
2022-09-12T15:17:35.888Z,3.55
2022-09-12T15:21:38.633Z,3.75
2022-09-12T15:25:45.544Z,2.80
2022-09-12T15:29:52.842Z,2.97
2022-09-12T15:34:03.207Z,3.53
2022-09-12T15:38:13.565Z,2.78
2022-09-12T15:42:24.669Z,3.05
2022-09-12T15:46:28.822Z,2.75
2022-09-12T15:50:31.541Z,2.75
2022-09-12T15:54:36.955Z,2.80
2022-09-12T15:58:57.159Z,2.90
2022-09-12T16:03:02.776Z,2.83
2022-09-12T16:07:14.780Z,3.03
2022-09-12T16:11:23.170Z,3.97
2022-09-12T16:15:28.508Z,3.15
2022-09-12T16:19:33.191Z,3.15
2022-09-12T16:23:36.712Z,2.97
2022-09-12T16:27:45.143Z,3.10
2022-09-12T16:31:50.243Z,3.08
2022-09-12T16:36:04.187Z,2.83
2022-09-12T16:40:23.789Z,2.53
2022-09-12T16:44:28.855Z,2.83
2022-09-12T16:48:34.569Z,2.95
2022-09-12T16:52:36.732Z,2.97
2022-09-12T16:56:42.625Z,2.92
2022-09-12T17:00:44.931Z,2.42
2022-09-12T17:04:49.767Z,2.63
2022-09-12T17:09:04.605Z,2.70
2022-09-12T17:13:06.817Z,3.20
2022-09-12T17:17:14.712Z,3.13
2022-09-12T17:21:19.786Z,2.70
2022-09-12T17:25:28.092Z,2.70
2022-09-12T17:29:34.719Z,2.97
2022-09-12T17:33:39.860Z,2.58
2022-09-12T17:42:04.876Z,2.70
2022-09-12T17:46:20.627Z,2.78
2022-09-12T17:50:31.733Z,2.75
2022-09-12T17:54:47.305Z,2.83
2022-09-12T17:58:57.319Z,3.35
2022-09-12T18:02:59.720Z,3.17
2022-09-12T18:07:11.011Z,3.13
2022-09-12T18:11:13.428Z,2.97
2022-09-12T18:15:17.951Z,2.97
2022-09-12T18:19:24.827Z,3.25
2022-09-12T18:23:31.009Z,3.05
2022-09-12T18:27:37.004Z,3.03
2022-09-12T18:31:44.426Z,2.88
2022-09-12T18:35:47.065Z,2.83
2022-09-12T18:39:51.673Z,2.70
2022-09-12T18:44:03.880Z,2.97
2022-09-12T18:48:08.689Z,3.35
2022-09-12T18:52:10.959Z,3.10
2022-09-12T18:56:29.016Z,2.97
2022-09-12T19:00:31.417Z,2.90
2022-09-12T19:04:59.365Z,3.17
2022-09-12T19:09:06.705Z,2.90
2022-09-12T19:13:12.527Z,3.25
2022-09-12T19:17:15.448Z,3.72
2022-09-12T19:21:20.378Z,3.67
2022-09-12T19:25:25.056Z,3.17
2022-09-12T19:29:27.590Z,3.42
2022-09-12T19:33:31.870Z,3.22
2022-09-12T19:37:34.296Z,3.45
2022-09-12T19:41:38.892Z,5.32
2022-09-12T19:45:48.652Z,3.35
2022-09-12T19:49:52.609Z,3.80
2022-09-12T19:53:57.752Z,3.47
2022-09-12T19:58:04.012Z,3.83
2022-09-12T20:02:06.544Z,4.13
2022-09-12T20:06:11.773Z,4.05
2022-09-12T20:10:15.201Z,3.92
2022-09-12T20:14:18.635Z,3.85
2022-09-12T20:18:21.191Z,4.32
2022-09-12T20:22:26.008Z,3.50
2022-09-12T20:26:31.197Z,4.10
2022-09-12T20:30:33.403Z,4.00
2022-09-12T20:34:35.471Z,3.97
2022-09-12T20:39:01.561Z,3.45
2022-09-12T20:43:03.905Z,3.28
2022-09-12T20:47:08.820Z,3.47
2022-09-12T20:51:11.019Z,3.58
2022-09-12T20:55:13.098Z,3.70
2022-09-12T20:59:18.714Z,3.63
2022-09-12T21:03:25.856Z,3.75
2022-09-12T21:07:28.274Z,3.90
2022-09-12T21:11:30.613Z,3.30
2022-09-12T21:15:32.950Z,3.63
2022-09-12T21:19:35.279Z,3.50
2022-09-12T21:23:40.833Z,3.65
2022-09-12T21:27:43.040Z,3.70
2022-09-12T21:31:45.412Z,4.10
2022-09-12T21:35:50.471Z,3.95
2022-09-12T21:39:53.197Z,3.80
2022-09-12T21:43:55.618Z,3.60
2022-09-12T21:47:57.975Z,3.20
2022-09-12T21:52:00.414Z,3.38
2022-09-12T21:56:05.100Z,3.15
2022-09-12T22:00:12.344Z,2.83
2022-09-12T22:04:22.413Z,2.90
2022-09-12T22:08:24.880Z,2.75
2022-09-12T22:12:30.072Z,2.90
2022-09-12T22:16:34.255Z,2.90
2022-09-12T22:20:39.089Z,2.78
2022-09-12T22:24:46.368Z,3.05
2022-09-12T22:28:50.676Z,2.90
2022-09-12T22:32:53.134Z,2.53
2022-09-12T22:36:55.914Z,3.03
2022-09-12T22:41:06.465Z,3.20
2022-09-12T22:45:09.207Z,3.05
2022-09-12T22:49:14.264Z,2.90
2022-09-12T22:53:28.225Z,3.15
2022-09-12T22:57:30.683Z,3.30
2022-09-12T23:01:35.719Z,3.15
2022-09-12T23:05:40.673Z,3.38
2022-09-12T23:09:42.795Z,4.57
2022-09-12T23:13:46.886Z,3.07
2022-09-12T23:17:49.197Z,3.22
2022-09-12T23:21:51.610Z,3.13
2022-09-12T23:26:13.238Z,3.25
2022-09-12T23:30:18.028Z,3.40
2022-09-12T23:34:20.158Z,3.67
2022-09-12T23:38:24.844Z,3.53
2022-09-12T23:42:27.273Z,3.60
2022-09-12T23:46:32.065Z,3.40
2022-09-12T23:50:34.288Z,3.67
2022-09-12T23:54:37.400Z,4.00
2022-09-12T23:58:39.523Z,3.90
